createdAt,value
2023-05-05T00:01:40.111Z,7.76
2023-05-05T00:04:07.577Z,7.29
2023-05-05T00:06:35.168Z,7.35
2023-05-05T00:09:02.333Z,7.64
2023-05-05T00:11:29.833Z,7.54
2023-05-05T00:13:57.052Z,7.69
2023-05-05T00:16:24.799Z,7.75
2023-05-05T00:18:52.072Z,7.51
2023-05-05T00:21:19.555Z,7.52
2023-05-05T00:23:46.777Z,7.52
2023-05-05T00:26:14.520Z,7.56
2023-05-05T00:28:43.780Z,7.63
2023-05-05T00:31:11.498Z,7.66
2023-05-05T00:33:38.800Z,7.38
2023-05-05T00:36:07.649Z,7.53
2023-05-05T00:38:34.850Z,7.57
2023-05-05T00:41:02.392Z,7.58
2023-05-05T00:43:29.596Z,7.35
2023-05-05T00:46:04.196Z,7.35
2023-05-05T00:48:32.662Z,7.42
2023-05-05T00:51:00.482Z,7.66
2023-05-05T00:53:28.417Z,7.78
2023-05-05T00:55:56.001Z,7.96
2023-05-05T00:58:24.725Z,7.31
2023-05-05T01:00:52.496Z,7.68
2023-05-05T01:03:19.810Z,7.33
2023-05-05T01:05:50.482Z,7.57
2023-05-05T01:08:37.565Z,7.52
2023-05-05T01:11:17.219Z,7.79
2023-05-05T01:14:09.121Z,7.01
2023-05-05T01:16:38.157Z,7.51
2023-05-05T01:19:29.944Z,7.44
2023-05-05T01:22:00.842Z,7.66
2023-05-05T01:24:50.936Z,7.66
2023-05-05T01:27:45.115Z,7.51
2023-05-05T01:30:31.226Z,7.68
2023-05-05T01:33:04.175Z,7.44
2023-05-05T01:35:45.794Z,7.53
2023-05-05T01:38:26.395Z,7.09
2023-05-05T01:41:01.922Z,7.33
2023-05-05T01:43:33.908Z,7.15
2023-05-05T01:46:02.614Z,7.35
2023-05-05T01:48:31.225Z,7.48
2023-05-05T01:51:00.734Z,6.84
2023-05-05T01:53:29.702Z,7.16
2023-05-05T01:55:58.193Z,7.13
2023-05-05T01:58:28.271Z,7.36
2023-05-05T02:00:57.578Z,7.16
2023-05-05T02:03:26.944Z,6.79
2023-05-05T02:05:55.401Z,7.02
2023-05-05T02:08:25.016Z,6.82
2023-05-05T02:10:53.945Z,7.09
2023-05-05T02:13:23.894Z,6.76
2023-05-05T02:15:53.541Z,6.93
2023-05-05T02:18:22.964Z,6.73
2023-05-05T02:20:50.990Z,6.73
2023-05-05T02:23:19.294Z,7.01
2023-05-05T02:25:51.401Z,6.91
2023-05-05T02:28:23.281Z,7.10
2023-05-05T02:30:57.686Z,7.00
2023-05-05T02:33:29.219Z,6.98
2023-05-05T02:35:58.172Z,6.75
2023-05-05T02:38:29.461Z,6.99
2023-05-05T02:41:03.922Z,6.78
2023-05-05T02:43:33.204Z,6.87
2023-05-05T02:46:01.219Z,6.74
2023-05-05T02:48:30.056Z,6.48
2023-05-05T02:51:01.100Z,6.42
2023-05-05T02:53:34.675Z,6.49
2023-05-05T02:56:30.093Z,6.46
2023-05-05T02:59:17.828Z,6.77
2023-05-05T03:02:03.342Z,6.75
2023-05-05T03:04:47.121Z,6.46
2023-05-05T03:07:30.898Z,6.43
2023-05-05T03:10:07.450Z,6.70
2023-05-05T03:12:48.564Z,6.40
2023-05-05T03:15:28.135Z,6.66
2023-05-05T03:17:57.161Z,6.39
2023-05-05T03:20:26.060Z,6.53
2023-05-05T03:22:54.976Z,6.70
2023-05-05T03:25:22.804Z,6.53
2023-05-05T03:27:51.106Z,6.76
2023-05-05T03:30:21.428Z,7.16
2023-05-05T03:32:51.529Z,7.50
2023-05-05T03:35:19.294Z,7.16
2023-05-05T03:37:46.595Z,7.18
2023-05-05T03:40:17.805Z,7.84
2023-05-05T03:42:45.149Z,8.49
2023-05-05T03:45:12.947Z,8.61
2023-05-05T03:47:40.561Z,8.37
2023-05-05T03:50:09.390Z,8.46
2023-05-05T03:52:36.708Z,9.64
2023-05-05T03:55:04.623Z,10.27
2023-05-05T03:57:31.905Z,9.86
2023-05-05T03:59:59.471Z,9.38
2023-05-05T04:02:27.433Z,9.58
2023-05-05T04:04:55.217Z,10.49
2023-05-05T04:07:23.742Z,10.39
2023-05-05T04:09:51.856Z,11.63
2023-05-05T04:12:19.169Z,12.42
2023-05-05T04:14:46.749Z,12.72
2023-05-05T04:17:14.324Z,13.47
2023-05-05T04:19:42.822Z,11.35
2023-05-05T04:22:10.061Z,10.61
2023-05-05T04:24:37.557Z,10.02
2023-05-05T04:27:04.914Z,10.80
2023-05-05T04:29:32.491Z,9.75
2023-05-05T04:31:59.822Z,10.09
2023-05-05T04:34:27.721Z,10.90
2023-05-05T04:36:55.251Z,11.42
2023-05-05T04:39:23.354Z,12.86
2023-05-05T04:41:50.770Z,11.49
2023-05-05T04:44:18.410Z,11.44
2023-05-05T04:46:46.025Z,10.85
2023-05-05T04:49:13.548Z,10.71
2023-05-05T04:51:42.264Z,12.82
2023-05-05T04:54:09.806Z,11.27
2023-05-05T04:56:37.270Z,11.11
2023-05-05T04:59:04.744Z,11.33
2023-05-05T05:01:31.987Z,10.98
2023-05-05T05:03:59.556Z,10.86
2023-05-05T05:06:27.288Z,9.93
2023-05-05T05:08:54.956Z,9.05
2023-05-05T05:11:22.389Z,8.88
2023-05-05T05:13:50.280Z,9.02
2023-05-05T05:16:17.555Z,8.74
2023-05-05T05:18:45.326Z,8.83
2023-05-05T05:21:13.606Z,10.01
2023-05-05T05:23:41.157Z,9.90
2023-05-05T05:26:08.460Z,9.33
2023-05-05T05:28:36.695Z,9.69
2023-05-05T05:31:04.878Z,9.58
2023-05-05T05:33:32.695Z,9.69
2023-05-05T05:35:59.961Z,10.85
2023-05-05T05:38:28.246Z,11.42
2023-05-05T05:40:58.803Z,10.46
2023-05-05T05:43:26.319Z,10.67
2023-05-05T05:45:53.680Z,10.94
2023-05-05T05:48:24.845Z,10.75
2023-05-05T05:50:52.826Z,11.33
2023-05-05T05:53:20.625Z,13.18
2023-05-05T05:55:48.719Z,15.79
2023-05-05T05:58:17.308Z,15.91
2023-05-05T06:00:45.660Z,17.49
2023-05-05T06:03:13.819Z,15.87
2023-05-05T06:05:42.058Z,15.62
2023-05-05T06:08:09.873Z,15.46
2023-05-05T06:10:42.465Z,17.13
2023-05-05T06:13:15.468Z,16.30
2023-05-05T06:15:46.282Z,17.25
2023-05-05T06:18:15.116Z,17.67
2023-05-05T06:20:43.561Z,18.81
2023-05-05T06:23:12.357Z,15.02
2023-05-05T06:25:43.920Z,16.53
2023-05-05T06:28:11.448Z,17.15
2023-05-05T06:30:38.606Z,16.48
2023-05-05T06:33:06.218Z,17.45
2023-05-05T06:35:33.605Z,14.20
2023-05-05T06:38:01.173Z,14.38
2023-05-05T06:40:28.443Z,14.08
2023-05-05T06:42:56.037Z,16.76
2023-05-05T06:45:28.434Z,18.88
2023-05-05T06:47:55.918Z,17.43
2023-05-05T06:50:23.118Z,17.94
2023-05-05T06:52:50.720Z,16.09
2023-05-05T06:55:18.579Z,14.77
2023-05-05T06:57:46.043Z,14.27
2023-05-05T07:00:15.019Z,14.70
2023-05-05T07:02:42.709Z,12.57
2023-05-05T07:05:10.548Z,13.05
2023-05-05T07:07:38.950Z,11.33
2023-05-05T07:10:06.972Z,13.56
2023-05-05T07:12:34.715Z,15.79
2023-05-05T07:15:12.218Z,16.12
2023-05-05T07:17:39.995Z,14.92
2023-05-05T07:20:09.298Z,15.53
2023-05-05T07:22:37.327Z,14.44
2023-05-05T07:25:05.346Z,13.44
2023-05-05T07:27:33.386Z,13.46
2023-05-05T07:30:01.410Z,12.56
2023-05-05T07:32:29.023Z,12.95
2023-05-05T07:34:56.276Z,15.10
2023-05-05T07:37:23.999Z,13.16
2023-05-05T07:39:51.322Z,13.34
2023-05-05T07:42:18.966Z,14.78
2023-05-05T07:44:46.257Z,15.17
2023-05-05T07:47:13.783Z,14.60
2023-05-05T07:49:41.210Z,13.36
2023-05-05T07:52:08.963Z,10.96
2023-05-05T07:54:36.336Z,12.78
2023-05-05T07:57:04.002Z,13.34
2023-05-05T07:59:31.361Z,13.82
2023-05-05T08:01:59.169Z,14.05
2023-05-05T08:04:26.426Z,14.58
2023-05-05T08:06:53.939Z,15.41
2023-05-05T08:09:21.162Z,14.04
2023-05-05T08:11:48.756Z,14.47
2023-05-05T08:14:16.047Z,14.06
2023-05-05T08:16:43.670Z,13.26
2023-05-05T08:19:21.530Z,15.18
2023-05-05T08:21:52.954Z,17.28
2023-05-05T08:24:20.365Z,16.13
2023-05-05T08:26:47.943Z,15.23
2023-05-05T08:29:15.223Z,14.92
2023-05-05T08:31:42.827Z,16.22
2023-05-05T08:34:10.149Z,16.91
2023-05-05T08:36:37.751Z,15.95
2023-05-05T08:39:04.976Z,15.79
2023-05-05T08:41:33.424Z,15.98
2023-05-05T08:44:01.878Z,11.83
2023-05-05T08:46:31.169Z,12.23
2023-05-05T08:48:59.840Z,14.52
2023-05-05T08:51:31.722Z,13.10
2023-05-05T08:54:03.043Z,13.20
2023-05-05T08:56:34.576Z,13.24
2023-05-05T08:59:02.939Z,11.81
2023-05-05T09:01:32.447Z,12.38
2023-05-05T09:04:00.234Z,12.74
2023-05-05T09:06:29.028Z,13.50
2023-05-05T09:08:58.275Z,12.99
2023-05-05T09:11:28.161Z,12.88
2023-05-05T09:13:56.121Z,12.47
2023-05-05T09:16:23.802Z,12.96
2023-05-05T09:18:51.108Z,12.69
2023-05-05T09:21:23.205Z,12.66
2023-05-05T09:24:13.424Z,11.40
2023-05-05T09:26:43.494Z,10.00
2023-05-05T09:29:17.305Z,11.77
2023-05-05T09:31:45.052Z,12.05
2023-05-05T09:34:16.408Z,10.67
2023-05-05T09:36:49.467Z,9.99
2023-05-05T09:39:20.615Z,11.73
2023-05-05T09:41:48.228Z,11.16
2023-05-05T09:44:18.530Z,11.86
2023-05-05T09:46:53.289Z,12.75
2023-05-05T09:49:26.760Z,11.55
2023-05-05T09:51:55.058Z,12.58
2023-05-05T09:54:27.629Z,12.40
2023-05-05T09:56:58.090Z,12.63
2023-05-05T09:59:25.477Z,12.21
2023-05-05T10:01:53.124Z,10.25
2023-05-05T10:04:25.124Z,10.13
2023-05-05T10:06:52.850Z,9.15
2023-05-05T10:09:20.140Z,9.92
2023-05-05T10:11:47.977Z,11.42
2023-05-05T10:14:16.168Z,10.32
2023-05-05T10:16:50.950Z,9.65
2023-05-05T10:19:20.268Z,9.93
2023-05-05T10:21:50.793Z,10.53
2023-05-05T10:24:30.618Z,9.96
2023-05-05T10:27:00.068Z,10.09
2023-05-05T10:29:48.958Z,10.18
2023-05-05T10:32:53.873Z,10.64
2023-05-05T10:35:23.620Z,9.84
2023-05-05T10:37:52.387Z,9.08
2023-05-05T10:40:22.483Z,9.44
2023-05-05T10:42:51.003Z,9.34
2023-05-05T10:45:18.266Z,9.04
2023-05-05T10:47:46.467Z,8.42
2023-05-05T10:50:27.153Z,8.63
2023-05-05T10:53:19.558Z,9.59
2023-05-05T10:55:57.234Z,10.34
2023-05-05T10:58:55.517Z,9.09
2023-05-05T11:01:32.205Z,9.05
2023-05-05T11:04:18.863Z,8.48
2023-05-05T11:07:21.749Z,9.01
2023-05-05T11:09:57.457Z,8.37
2023-05-05T11:12:25.007Z,8.27
2023-05-05T11:15:20.523Z,8.46
2023-05-05T11:17:48.559Z,8.51
2023-05-05T11:20:16.388Z,8.05
2023-05-05T11:23:02.233Z,8.10
2023-05-05T11:25:40.766Z,8.18
2023-05-05T11:28:18.400Z,8.27
2023-05-05T11:30:55.022Z,7.81
2023-05-05T11:33:29.444Z,7.66
2023-05-05T11:36:02.813Z,7.87
2023-05-05T11:39:00.874Z,7.24
2023-05-05T11:41:34.424Z,7.56
2023-05-05T11:44:20.925Z,7.45
2023-05-05T11:46:51.573Z,7.67
2023-05-05T11:49:32.163Z,7.13
2023-05-05T11:52:11.251Z,7.35
2023-05-05T11:54:41.513Z,7.53
2023-05-05T11:57:09.342Z,8.03
2023-05-05T11:59:49.655Z,7.31
2023-05-05T12:02:21.233Z,7.09
2023-05-05T12:04:49.394Z,7.20
2023-05-05T12:07:18.573Z,6.87
2023-05-05T12:09:47.361Z,6.99
2023-05-05T12:12:15.842Z,6.76
2023-05-05T12:14:54.287Z,6.86
2023-05-05T12:17:23.566Z,7.18
2023-05-05T12:19:53.446Z,7.61
2023-05-05T12:22:24.078Z,7.52
2023-05-05T12:24:59.134Z,7.64
2023-05-05T12:27:28.142Z,7.43
2023-05-05T12:29:56.936Z,6.96
2023-05-05T12:32:26.174Z,7.22
2023-05-05T12:34:57.402Z,7.43
2023-05-05T12:37:26.913Z,8.12
2023-05-05T12:39:55.148Z,7.64
2023-05-05T12:42:23.156Z,6.99
2023-05-05T12:44:50.427Z,6.88
2023-05-05T12:47:33.589Z,7.05
2023-05-05T12:50:03.130Z,7.52
2023-05-05T12:52:44.516Z,7.53
2023-05-05T12:55:12.429Z,7.65
2023-05-05T12:58:00.552Z,7.21
2023-05-05T13:00:29.248Z,6.94
2023-05-05T13:02:57.075Z,7.73
2023-05-05T13:05:39.563Z,7.72
2023-05-05T13:08:07.192Z,7.30
2023-05-05T13:10:34.448Z,7.30
2023-05-05T13:13:02.605Z,7.37
2023-05-05T13:15:30.021Z,7.35
2023-05-05T13:18:01.485Z,7.36
2023-05-05T13:20:28.994Z,7.35
2023-05-05T13:22:57.394Z,7.03
2023-05-05T13:25:24.665Z,7.36
2023-05-05T13:27:52.323Z,7.41
2023-05-05T13:30:20.750Z,7.40
2023-05-05T13:32:48.354Z,7.12
2023-05-05T13:35:16.516Z,7.21
2023-05-05T13:37:46.055Z,7.45
2023-05-05T13:40:13.977Z,7.38
2023-05-05T13:42:41.497Z,7.94
2023-05-05T13:45:09.389Z,7.48
2023-05-05T13:47:37.070Z,6.76
2023-05-05T13:50:04.749Z,7.12
2023-05-05T13:52:33.595Z,7.20
2023-05-05T13:55:01.149Z,7.31
2023-05-05T13:57:28.815Z,7.06
2023-05-05T13:59:56.392Z,7.16
2023-05-05T14:02:23.934Z,7.59
2023-05-05T14:04:51.171Z,7.14
2023-05-05T14:07:18.699Z,7.31
2023-05-05T14:09:45.881Z,6.76
2023-05-05T14:12:13.557Z,7.32
2023-05-05T14:14:40.817Z,7.81
2023-05-05T14:17:08.394Z,7.44
2023-05-05T14:19:36.511Z,7.75
2023-05-05T14:22:04.035Z,8.13
2023-05-05T14:24:31.261Z,7.80
2023-05-05T14:26:58.984Z,7.66
2023-05-05T14:29:26.333Z,8.05
2023-05-05T14:31:54.340Z,7.33
2023-05-05T14:34:21.965Z,7.20
2023-05-05T14:36:49.549Z,7.82
2023-05-05T14:39:17.087Z,7.67
2023-05-05T14:41:44.718Z,7.79
2023-05-05T14:44:12.073Z,7.96
2023-05-05T14:46:39.662Z,7.67
2023-05-05T14:49:06.907Z,7.71
2023-05-05T14:51:34.471Z,6.55
2023-05-05T14:54:01.852Z,7.18
2023-05-05T14:56:29.947Z,7.60
2023-05-05T14:58:57.259Z,7.53
2023-05-05T15:01:27.868Z,7.38
2023-05-05T15:03:55.304Z,7.88
2023-05-05T15:06:23.203Z,7.75
2023-05-05T15:08:50.523Z,7.67
2023-05-05T15:11:18.115Z,7.57
2023-05-05T15:13:45.327Z,7.25
2023-05-05T15:16:12.927Z,7.26
2023-05-05T15:18:40.240Z,7.50
2023-05-05T15:21:07.895Z,7.47
2023-05-05T15:23:36.490Z,7.54
2023-05-05T15:26:04.520Z,7.50
2023-05-05T15:28:31.717Z,7.50
2023-05-05T15:31:02.226Z,7.65
2023-05-05T15:33:31.143Z,7.45
2023-05-05T15:35:58.686Z,7.28
2023-05-05T15:38:26.030Z,7.45
2023-05-05T15:40:53.493Z,7.11
2023-05-05T15:43:20.988Z,7.60
2023-05-05T15:45:48.618Z,7.37
2023-05-05T15:48:15.823Z,7.03
2023-05-05T15:50:43.312Z,7.09
2023-05-05T15:53:10.506Z,6.94
2023-05-05T15:55:39.258Z,7.16
2023-05-05T15:58:06.426Z,7.03
2023-05-05T16:00:33.942Z,6.87
2023-05-05T16:03:01.551Z,6.82
2023-05-05T16:05:29.122Z,6.59
2023-05-05T16:07:56.398Z,6.75
2023-05-05T16:10:24.006Z,7.05
2023-05-05T16:12:52.255Z,6.95
2023-05-05T16:15:20.046Z,6.75
2023-05-05T16:17:47.688Z,6.33
2023-05-05T16:20:15.213Z,6.30
2023-05-05T16:22:42.500Z,6.51
2023-05-05T16:25:10.391Z,6.54
2023-05-05T16:27:37.996Z,6.24
2023-05-05T16:30:06.034Z,6.14
2023-05-05T16:32:33.302Z,6.15
2023-05-05T16:35:01.972Z,6.41
2023-05-05T16:37:29.182Z,6.25
2023-05-05T16:39:56.687Z,5.99
2023-05-05T16:42:24.409Z,6.25
2023-05-05T16:44:51.905Z,5.92
2023-05-05T16:47:19.133Z,6.05
2023-05-05T16:49:47.136Z,6.00
2023-05-05T16:52:14.583Z,6.04
2023-05-05T16:54:43.622Z,6.49
2023-05-05T16:57:10.810Z,6.18
2023-05-05T16:59:38.345Z,6.07
2023-05-05T17:02:06.099Z,5.67
2023-05-05T17:04:33.624Z,5.97
2023-05-05T17:07:00.796Z,6.32
2023-05-05T17:09:28.360Z,6.04
2023-05-05T17:11:56.087Z,6.18
2023-05-05T17:14:24.572Z,6.36
2023-05-05T17:16:51.838Z,6.46
2023-05-05T17:19:19.346Z,5.77
2023-05-05T17:21:46.560Z,5.88
2023-05-05T17:24:14.050Z,6.20
2023-05-05T17:26:41.625Z,6.26
2023-05-05T17:29:10.893Z,6.15
2023-05-05T17:31:39.794Z,6.38
2023-05-05T17:34:07.546Z,6.08
2023-05-05T17:36:35.554Z,6.19
2023-05-05T17:39:03.225Z,6.13
2023-05-05T17:41:30.377Z,5.95
2023-05-05T17:43:59.474Z,5.72
2023-05-05T17:46:26.807Z,6.04
2023-05-05T17:48:54.613Z,6.06
2023-05-05T17:51:21.837Z,6.21
2023-05-05T17:53:49.444Z,6.02
2023-05-05T17:56:16.720Z,6.15
2023-05-05T17:58:44.208Z,5.93
2023-05-05T18:01:22.499Z,6.09
2023-05-05T18:03:50.195Z,6.02
2023-05-05T18:06:17.613Z,5.88
2023-05-05T18:08:45.204Z,5.99
2023-05-05T18:11:12.572Z,5.70
2023-05-05T18:13:40.218Z,5.81
2023-05-05T18:16:07.552Z,5.92
2023-05-05T18:18:35.173Z,5.97
2023-05-05T18:21:02.505Z,6.01
2023-05-05T18:23:30.049Z,5.76
2023-05-05T18:25:57.226Z,5.91
2023-05-05T18:28:24.669Z,5.79
2023-05-05T18:30:52.082Z,5.74
2023-05-05T18:33:19.617Z,5.83
2023-05-05T18:35:46.771Z,5.74
2023-05-05T18:38:14.410Z,5.77
2023-05-05T18:40:42.347Z,5.84
2023-05-05T18:43:10.099Z,5.65
2023-05-05T18:45:37.471Z,5.77
2023-05-05T18:48:05.569Z,5.66
2023-05-05T18:50:33.388Z,5.54
2023-05-05T18:53:00.986Z,5.64
2023-05-05T18:55:28.252Z,5.69
2023-05-05T18:57:55.723Z,5.65
2023-05-05T19:00:22.979Z,5.87
2023-05-05T19:02:50.619Z,6.08
2023-05-05T19:05:18.216Z,5.83
2023-05-05T19:07:45.929Z,5.91
2023-05-05T19:10:13.346Z,5.81
2023-05-05T19:12:40.887Z,5.63
2023-05-05T19:15:08.906Z,5.92
2023-05-05T19:17:36.778Z,5.57
2023-05-05T19:20:04.350Z,5.88
2023-05-05T19:22:31.879Z,5.93
2023-05-05T19:24:59.156Z,5.91
2023-05-05T19:27:26.662Z,6.00
2023-05-05T19:29:53.963Z,5.91
2023-05-05T19:32:21.681Z,6.13
2023-05-05T19:34:49.055Z,6.01
2023-05-05T19:37:16.591Z,5.69
2023-05-05T19:39:45.769Z,5.89
2023-05-05T19:42:13.845Z,5.79
2023-05-05T19:44:41.126Z,6.06
2023-05-05T19:47:09.042Z,5.68
2023-05-05T19:49:38.311Z,5.65
2023-05-05T19:52:06.052Z,5.91
2023-05-05T19:54:33.319Z,6.00
2023-05-05T19:57:00.924Z,5.84
2023-05-05T19:59:28.176Z,5.80
2023-05-05T20:01:55.842Z,5.73
2023-05-05T20:04:23.125Z,5.87
2023-05-05T20:06:51.111Z,5.70
2023-05-05T20:09:18.758Z,5.75
2023-05-05T20:11:46.231Z,5.83
2023-05-05T20:14:13.592Z,6.05
2023-05-05T20:16:42.081Z,6.06
2023-05-05T20:19:09.312Z,5.89
2023-05-05T20:21:37.052Z,6.01
2023-05-05T20:24:04.698Z,5.92
2023-05-05T20:26:32.319Z,5.91
2023-05-05T20:28:59.579Z,5.96
2023-05-05T20:31:27.204Z,5.96
2023-05-05T20:33:54.495Z,5.83
2023-05-05T20:36:22.904Z,5.75
2023-05-05T20:38:51.979Z,5.74
2023-05-05T20:41:19.576Z,5.87
2023-05-05T20:43:46.840Z,6.05
2023-05-05T20:46:16.185Z,5.99
2023-05-05T20:48:44.356Z,5.87
2023-05-05T20:51:11.902Z,5.84
2023-05-05T20:53:39.088Z,5.93
2023-05-05T20:56:08.935Z,5.97
2023-05-05T20:58:36.471Z,5.78
2023-05-05T21:01:04.035Z,5.90
2023-05-05T21:03:31.304Z,6.14
2023-05-05T21:05:58.836Z,6.09
2023-05-05T21:08:26.851Z,6.10
2023-05-05T21:10:54.372Z,6.01
2023-05-05T21:13:21.671Z,6.28
2023-05-05T21:15:50.550Z,6.08
2023-05-05T21:18:17.814Z,6.03
2023-05-05T21:20:45.406Z,6.18
2023-05-05T21:23:12.591Z,6.22
2023-05-05T21:25:40.173Z,5.97
2023-05-05T21:28:07.587Z,6.16
2023-05-05T21:30:35.103Z,5.91
2023-05-05T21:33:02.368Z,6.04
2023-05-05T21:35:29.949Z,6.18
2023-05-05T21:37:57.266Z,6.06
2023-05-05T21:40:24.927Z,6.06
2023-05-05T21:42:52.204Z,5.86
2023-05-05T21:45:20.162Z,6.16
2023-05-05T21:47:47.446Z,6.04
2023-05-05T21:50:15.096Z,6.06
2023-05-05T21:52:42.482Z,6.11
2023-05-05T21:55:11.096Z,6.00
2023-05-05T21:57:38.468Z,6.00
2023-05-05T22:00:06.654Z,6.16
2023-05-05T22:02:39.730Z,6.09
2023-05-05T22:05:07.776Z,5.98
2023-05-05T22:07:35.806Z,5.99
2023-05-05T22:10:03.860Z,6.32
2023-05-05T22:12:31.329Z,6.10
2023-05-05T22:14:58.896Z,6.33
2023-05-05T22:17:26.206Z,6.00
2023-05-05T22:19:53.716Z,6.37
2023-05-05T22:22:21.165Z,6.34
2023-05-05T22:24:48.723Z,6.22
2023-05-05T22:27:16.018Z,6.39
2023-05-05T22:29:43.591Z,6.18
2023-05-05T22:32:11.392Z,6.14
2023-05-05T22:34:39.015Z,6.24
2023-05-05T22:37:06.298Z,6.10
2023-05-05T22:39:33.894Z,6.24
2023-05-05T22:42:02.038Z,6.32
2023-05-05T22:44:29.799Z,6.33
2023-05-05T22:46:57.268Z,6.29
2023-05-05T22:49:25.010Z,6.12
2023-05-05T22:51:52.416Z,6.28
2023-05-05T22:54:20.205Z,5.97
2023-05-05T22:56:47.805Z,5.98
2023-05-05T22:59:15.625Z,6.18
2023-05-05T23:01:43.103Z,6.15
2023-05-05T23:04:10.634Z,6.21
2023-05-05T23:06:39.701Z,6.21
2023-05-05T23:09:07.710Z,6.15
2023-05-05T23:11:34.918Z,6.05
2023-05-05T23:14:02.442Z,6.24
2023-05-05T23:16:29.756Z,5.99
2023-05-05T23:18:57.381Z,6.01
2023-05-05T23:21:24.634Z,5.84
2023-05-05T23:23:52.214Z,6.06
2023-05-05T23:26:19.501Z,6.26
2023-05-05T23:28:46.974Z,6.17
2023-05-05T23:31:14.235Z,6.04
2023-05-05T23:33:42.007Z,6.23
2023-05-05T23:36:09.308Z,6.11
2023-05-05T23:38:36.877Z,6.05
2023-05-05T23:41:04.275Z,6.02
2023-05-05T23:43:31.816Z,6.00
2023-05-05T23:45:59.363Z,6.13
2023-05-05T23:48:27.033Z,6.08
2023-05-05T23:50:54.692Z,6.07
2023-05-05T23:53:22.192Z,6.11
2023-05-05T23:55:49.383Z,5.78
2023-05-05T23:58:16.901Z,5.99
